createdAt,value
2019-01-20T00:00:15.682Z,16.92
2019-01-20T00:01:19.328Z,16.90
2019-01-20T00:02:22.870Z,16.88
2019-01-20T00:03:26.352Z,16.86
2019-01-20T00:04:29.877Z,16.87
2019-01-20T00:05:33.661Z,16.87
2019-01-20T00:06:37.213Z,16.85
2019-01-20T00:07:40.728Z,16.85
2019-01-20T00:08:44.272Z,16.84
2019-01-20T00:09:49.438Z,16.82
2019-01-20T00:10:52.916Z,16.81
2019-01-20T00:11:56.393Z,16.80
2019-01-20T00:12:59.900Z,16.79
2019-01-20T00:14:03.615Z,16.78
2019-01-20T00:15:16.379Z,16.76
2019-01-20T00:16:20.045Z,16.74
2019-01-20T00:17:23.615Z,16.75
2019-01-20T00:18:27.138Z,16.73
2019-01-20T00:19:30.638Z,16.72
2019-01-20T00:20:34.206Z,16.69
2019-01-20T00:21:37.794Z,16.69
2019-01-20T00:22:41.409Z,16.65
2019-01-20T00:23:45.063Z,16.67
2019-01-20T00:24:48.571Z,16.67
2019-01-20T00:25:52.062Z,16.66
2019-01-20T00:26:55.586Z,16.64
2019-01-20T00:27:59.206Z,16.64
2019-01-20T00:29:02.775Z,16.63
2019-01-20T00:30:09.318Z,16.62
2019-01-20T00:31:12.899Z,16.62
2019-01-20T00:32:16.422Z,16.60
2019-01-20T00:33:20.047Z,16.59
2019-01-20T00:34:23.706Z,16.58
2019-01-20T00:35:27.262Z,16.58
2019-01-20T00:36:30.753Z,16.56
2019-01-20T00:37:34.330Z,16.56
2019-01-20T00:38:37.851Z,16.55
2019-01-20T00:39:41.406Z,16.54
2019-01-20T00:40:44.980Z,16.53
2019-01-20T00:41:48.522Z,16.53
2019-01-20T00:42:52.013Z,16.51
2019-01-20T00:43:55.601Z,16.49
2019-01-20T00:45:02.853Z,16.50
2019-01-20T00:46:04.672Z,16.48
2019-01-20T00:47:08.757Z,16.47
2019-01-20T00:48:12.407Z,16.47
2019-01-20T00:49:15.939Z,16.45
2019-01-20T00:50:19.639Z,16.44
2019-01-20T00:51:23.442Z,16.44
2019-01-20T00:52:27.025Z,16.44
2019-01-20T00:53:30.574Z,16.41
2019-01-20T00:54:34.152Z,16.42
2019-01-20T00:55:37.842Z,16.41
2019-01-20T00:56:41.406Z,16.41
2019-01-20T00:57:45.688Z,16.40
2019-01-20T00:58:49.320Z,16.40
2019-01-20T00:59:52.977Z,16.38
2019-01-20T01:00:56.566Z,16.37
2019-01-20T01:02:00.380Z,16.36
2019-01-20T01:03:04.264Z,16.34
2019-01-20T01:04:07.945Z,16.35
2019-01-20T01:05:11.792Z,16.34
2019-01-20T01:06:15.492Z,16.32
2019-01-20T01:07:19.101Z,16.32
2019-01-20T01:08:22.790Z,16.32
2019-01-20T01:09:26.414Z,16.30
2019-01-20T01:10:30.137Z,16.30
2019-01-20T01:11:33.642Z,16.29
2019-01-20T01:12:37.756Z,16.27
2019-01-20T01:13:41.596Z,16.26
2019-01-20T01:14:45.361Z,16.26
2019-01-20T01:15:49.068Z,16.25
2019-01-20T01:16:52.649Z,16.24
2019-01-20T01:17:56.261Z,16.22
2019-01-20T01:18:59.841Z,16.23
2019-01-20T01:20:04.672Z,16.22
2019-01-20T01:21:08.264Z,16.21
2019-01-20T01:22:11.908Z,16.21
2019-01-20T01:23:15.491Z,16.20
2019-01-20T01:24:19.081Z,16.19
2019-01-20T01:25:22.831Z,16.19
2019-01-20T01:26:26.405Z,16.17
2019-01-20T01:27:29.937Z,16.18
2019-01-20T01:28:33.620Z,16.16
2019-01-20T01:29:37.220Z,16.14
2019-01-20T01:30:40.855Z,16.16
2019-01-20T01:31:44.436Z,16.15
2019-01-20T01:32:48.484Z,16.14
2019-01-20T01:33:52.040Z,16.13
2019-01-20T01:34:55.625Z,16.14
2019-01-20T01:35:59.322Z,16.14
2019-01-20T01:37:02.897Z,16.13
2019-01-20T01:38:06.645Z,16.12
2019-01-20T01:39:10.293Z,16.11
2019-01-20T01:40:18.305Z,16.11
2019-01-20T01:41:21.857Z,16.10
2019-01-20T01:42:25.363Z,16.10
2019-01-20T01:43:28.849Z,16.08
2019-01-20T01:44:32.441Z,16.08
2019-01-20T01:45:36.102Z,16.08
2019-01-20T01:46:39.601Z,16.06
2019-01-20T01:47:43.402Z,16.06
2019-01-20T01:48:46.962Z,16.04
2019-01-20T01:49:50.515Z,16.05
2019-01-20T01:50:54.028Z,16.04
2019-01-20T01:51:57.565Z,16.04
2019-01-20T01:53:01.217Z,16.02
2019-01-20T01:54:05.059Z,16.02
2019-01-20T01:55:11.146Z,16.01
2019-01-20T01:56:14.698Z,16.01
2019-01-20T01:57:18.409Z,16.00
2019-01-20T01:58:22.306Z,15.99
2019-01-20T01:59:25.929Z,15.99
2019-01-20T02:00:29.625Z,15.95
2019-01-20T02:01:33.164Z,15.98
2019-01-20T02:02:36.797Z,15.96
2019-01-20T02:03:40.367Z,15.96
2019-01-20T02:04:44.040Z,15.96
2019-01-20T02:05:47.586Z,15.95
2019-01-20T02:06:51.142Z,15.96
2019-01-20T02:07:54.683Z,15.94
2019-01-20T02:08:58.274Z,15.93
2019-01-20T02:10:01.819Z,15.92
2019-01-20T02:11:05.554Z,15.92
2019-01-20T02:12:09.086Z,15.92
2019-01-20T02:13:12.627Z,15.91
2019-01-20T02:14:16.161Z,15.91
2019-01-20T02:15:21.298Z,15.90
2019-01-20T02:16:24.943Z,15.89
2019-01-20T02:17:28.628Z,15.89
2019-01-20T02:18:32.180Z,15.87
2019-01-20T02:19:35.897Z,15.88
2019-01-20T02:20:39.717Z,15.88
2019-01-20T02:21:43.677Z,15.86
2019-01-20T02:22:47.320Z,15.86
2019-01-20T02:23:50.947Z,15.86
2019-01-20T02:24:54.584Z,15.85
2019-01-20T02:25:58.166Z,15.83
2019-01-20T02:27:01.686Z,15.84
2019-01-20T02:28:05.391Z,15.81
2019-01-20T02:29:08.926Z,15.83
2019-01-20T02:30:20.883Z,15.82
2019-01-20T02:31:24.393Z,15.79
2019-01-20T02:32:28.011Z,15.81
2019-01-20T02:33:31.514Z,15.80
2019-01-20T02:34:35.024Z,15.80
2019-01-20T02:35:38.764Z,15.79
2019-01-20T02:36:42.330Z,15.79
2019-01-20T02:37:45.885Z,15.79
2019-01-20T02:38:49.507Z,15.79
2019-01-20T02:39:53.016Z,15.77
2019-01-20T02:40:56.529Z,15.77
2019-01-20T02:42:00.108Z,15.77
2019-01-20T02:43:03.647Z,15.77
2019-01-20T02:44:07.212Z,15.77
2019-01-20T02:45:13.034Z,15.75
2019-01-20T02:46:16.619Z,15.75
2019-01-20T02:47:20.096Z,15.75
2019-01-20T02:48:23.615Z,15.74
2019-01-20T02:49:27.135Z,15.75
2019-01-20T02:50:30.702Z,15.73
2019-01-20T02:51:34.287Z,15.73
2019-01-20T02:52:37.767Z,15.72
2019-01-20T02:53:41.272Z,15.71
2019-01-20T02:54:44.789Z,15.71
2019-01-20T02:55:48.354Z,15.70
2019-01-20T02:56:51.932Z,15.70
2019-01-20T02:57:55.452Z,15.69
2019-01-20T02:58:59.031Z,15.68
2019-01-20T03:00:03.166Z,15.67
2019-01-20T03:01:06.842Z,15.68
2019-01-20T03:02:10.540Z,15.68
2019-01-20T03:03:14.040Z,15.68
2019-01-20T03:04:17.652Z,15.66
2019-01-20T03:05:21.906Z,15.67
2019-01-20T03:06:25.415Z,15.66
2019-01-20T03:07:28.929Z,15.66
2019-01-20T03:08:32.504Z,15.65
2019-01-20T03:09:36.096Z,15.65
2019-01-20T03:10:39.717Z,15.65
2019-01-20T03:11:43.221Z,15.65
2019-01-20T03:12:46.867Z,15.65
2019-01-20T03:13:50.409Z,15.64
2019-01-20T03:14:53.992Z,15.62
2019-01-20T03:15:57.497Z,15.61
2019-01-20T03:17:00.993Z,15.62
2019-01-20T03:18:04.994Z,15.61
2019-01-20T03:19:08.651Z,15.61
2019-01-20T03:20:17.551Z,15.60
2019-01-20T03:21:21.054Z,15.58
2019-01-20T03:22:24.560Z,15.59
2019-01-20T03:24:30.694Z,15.57
2019-01-20T03:25:34.373Z,15.57
2019-01-20T03:26:38.019Z,15.57
2019-01-20T03:27:41.668Z,15.56
2019-01-20T03:28:45.254Z,15.57
2019-01-20T03:29:48.766Z,15.56
2019-01-20T03:30:52.297Z,15.56
2019-01-20T03:31:55.883Z,15.56
2019-01-20T03:32:59.526Z,15.55
2019-01-20T03:34:03.095Z,15.55
2019-01-20T03:35:08.040Z,15.55
2019-01-20T03:36:11.569Z,15.54
2019-01-20T03:37:15.145Z,15.53
2019-01-20T03:38:18.650Z,15.54
2019-01-20T03:39:22.227Z,15.56
2019-01-20T03:40:25.798Z,15.59
2019-01-20T03:42:32.081Z,15.67
2019-01-20T03:43:35.742Z,15.70
2019-01-20T03:44:39.374Z,15.77
2019-01-20T03:45:42.844Z,15.82
2019-01-20T03:46:46.442Z,15.88
2019-01-20T03:47:50.076Z,15.96
2019-01-20T03:48:53.565Z,16.02
2019-01-20T03:49:57.079Z,16.08
2019-01-20T03:51:00.677Z,16.16
2019-01-20T03:52:04.511Z,16.23
2019-01-20T03:53:08.041Z,16.29
2019-01-20T03:54:11.591Z,16.33
2019-01-20T03:55:17.053Z,16.40
2019-01-20T03:56:20.624Z,16.48
2019-01-20T03:57:24.300Z,16.55
2019-01-20T03:58:27.963Z,16.64
2019-01-20T03:59:31.561Z,16.76
2019-01-20T04:00:35.158Z,16.85
2019-01-20T04:01:38.735Z,16.92
2019-01-20T04:02:42.475Z,17.01
2019-01-20T04:03:46.076Z,17.10
2019-01-20T04:04:49.627Z,17.25
2019-01-20T04:05:53.245Z,17.32
2019-01-20T04:06:56.819Z,17.42
2019-01-20T04:08:00.481Z,17.48
2019-01-20T04:09:06.545Z,17.55
2019-01-20T04:10:13.394Z,17.68
2019-01-20T04:11:16.889Z,17.74
2019-01-20T04:12:21.071Z,17.79
2019-01-20T04:13:24.682Z,17.90
2019-01-20T04:14:28.259Z,17.93
2019-01-20T04:15:31.816Z,18.00
2019-01-20T04:16:35.400Z,18.07
2019-01-20T04:17:38.979Z,18.11
2019-01-20T04:18:42.541Z,18.16
2019-01-20T04:19:46.046Z,18.20
2019-01-20T04:20:49.626Z,18.29
2019-01-20T04:21:53.209Z,18.33
2019-01-20T04:22:56.736Z,18.37
2019-01-20T04:24:00.324Z,18.45
2019-01-20T04:25:05.006Z,18.48
2019-01-20T04:26:08.557Z,18.48
2019-01-20T04:27:12.056Z,18.43
2019-01-20T04:28:15.656Z,18.42
2019-01-20T04:29:19.206Z,18.38
2019-01-20T04:30:22.702Z,18.37
2019-01-20T04:31:26.211Z,18.37
2019-01-20T04:32:29.763Z,18.37
2019-01-20T04:33:33.326Z,18.34
2019-01-20T04:34:36.807Z,18.30
2019-01-20T04:35:40.305Z,18.26
2019-01-20T04:36:43.813Z,18.22
2019-01-20T04:37:47.435Z,18.21
2019-01-20T04:38:50.962Z,18.21
2019-01-20T04:39:54.581Z,18.24
2019-01-20T04:40:58.045Z,18.24
2019-01-20T04:42:01.614Z,18.24
2019-01-20T04:43:05.276Z,18.32
2019-01-20T04:44:08.895Z,18.38
2019-01-20T04:45:14.233Z,18.41
2019-01-20T04:46:17.779Z,18.43
2019-01-20T04:47:21.360Z,18.48
2019-01-20T04:48:24.865Z,18.48
2019-01-20T04:49:28.374Z,18.56
2019-01-20T04:50:31.949Z,18.58
2019-01-20T04:51:35.568Z,18.65
2019-01-20T04:52:39.112Z,18.65
2019-01-20T04:53:42.777Z,18.69
2019-01-20T04:54:46.304Z,18.74
2019-01-20T04:55:49.808Z,18.80
2019-01-20T04:56:53.383Z,18.85
2019-01-20T04:57:56.922Z,18.89
2019-01-20T04:59:00.451Z,18.94
2019-01-20T05:00:06.318Z,18.95
2019-01-20T05:01:09.908Z,18.96
2019-01-20T05:02:13.480Z,19.02
2019-01-20T05:03:17.023Z,19.02
2019-01-20T05:04:20.604Z,19.05
2019-01-20T05:05:24.699Z,19.08
2019-01-20T05:06:28.313Z,19.11
2019-01-20T05:07:32.077Z,19.13
2019-01-20T05:08:35.700Z,19.14
2019-01-20T05:09:39.384Z,19.12
2019-01-20T05:10:43.228Z,19.15
2019-01-20T05:11:46.778Z,19.12
2019-01-20T05:12:50.397Z,19.10
2019-01-20T05:13:53.924Z,19.08
2019-01-20T05:14:57.578Z,19.03
2019-01-20T05:16:01.302Z,19.02
2019-01-20T05:17:05.023Z,18.96
2019-01-20T05:18:08.611Z,18.95
2019-01-20T05:19:12.190Z,18.90
2019-01-20T05:20:17.417Z,18.87
2019-01-20T05:21:21.007Z,18.86
2019-01-20T05:22:24.579Z,18.81
2019-01-20T05:23:28.098Z,18.82
2019-01-20T05:24:31.705Z,18.80
2019-01-20T05:25:35.282Z,18.84
2019-01-20T05:26:39.157Z,18.84
2019-01-20T05:27:42.853Z,18.88
2019-01-20T05:28:46.445Z,18.87
2019-01-20T05:29:50.230Z,18.87
2019-01-20T05:30:53.841Z,18.91
2019-01-20T05:31:57.449Z,18.94
2019-01-20T05:33:01.038Z,18.93
2019-01-20T05:34:04.658Z,19.01
2019-01-20T05:35:09.795Z,19.05
2019-01-20T05:36:13.501Z,19.05
2019-01-20T05:37:17.003Z,19.09
2019-01-20T05:38:20.575Z,19.08
2019-01-20T05:39:24.132Z,19.15
2019-01-20T05:40:27.614Z,19.17
2019-01-20T05:41:31.125Z,19.21
2019-01-20T05:42:34.685Z,19.23
2019-01-20T05:43:38.207Z,19.22
2019-01-20T05:44:41.721Z,19.21
2019-01-20T05:45:45.210Z,19.20
2019-01-20T05:46:48.740Z,19.21
2019-01-20T05:47:52.381Z,19.18
2019-01-20T05:48:55.883Z,19.17
2019-01-20T05:49:59.373Z,19.18
2019-01-20T05:51:02.857Z,19.12
2019-01-20T05:52:06.463Z,19.12
2019-01-20T05:53:09.942Z,19.08
2019-01-20T05:54:13.495Z,19.05
2019-01-20T05:55:17.059Z,19.05
2019-01-20T05:56:20.631Z,19.02
2019-01-20T05:57:24.137Z,19.00
2019-01-20T05:58:27.639Z,19.00
2019-01-20T05:59:31.128Z,19.01
2019-01-20T06:00:35.243Z,19.01
2019-01-20T06:01:38.727Z,19.00
2019-01-20T06:02:42.382Z,18.99
2019-01-20T06:03:45.942Z,19.08
2019-01-20T06:04:49.433Z,19.12
2019-01-20T06:05:52.988Z,19.16
2019-01-20T06:06:56.488Z,19.14
2019-01-20T06:08:00.063Z,19.16
2019-01-20T06:09:05.137Z,19.18
2019-01-20T06:10:11.473Z,19.19
2019-01-20T06:11:14.956Z,19.19
2019-01-20T06:12:18.557Z,19.18
2019-01-20T06:13:22.148Z,19.14
2019-01-20T06:14:25.636Z,19.13
2019-01-20T06:15:29.197Z,19.11
2019-01-20T06:16:32.808Z,19.11
2019-01-20T06:17:36.311Z,19.02
2019-01-20T06:18:39.822Z,18.98
2019-01-20T06:19:43.310Z,18.93
2019-01-20T06:20:46.809Z,18.90
2019-01-20T06:21:50.302Z,18.85
2019-01-20T06:22:53.809Z,18.80
2019-01-20T06:23:57.359Z,18.74
2019-01-20T06:25:00.844Z,18.68
2019-01-20T06:26:04.585Z,18.62
2019-01-20T06:27:08.085Z,18.58
2019-01-20T06:28:11.679Z,18.54
2019-01-20T06:29:15.189Z,18.51
2019-01-20T06:30:24.594Z,18.45
2019-01-20T06:31:28.087Z,18.41
2019-01-20T06:32:31.589Z,18.36
2019-01-20T06:33:35.171Z,18.31
2019-01-20T06:34:38.653Z,18.27
2019-01-20T06:35:42.144Z,18.23
2019-01-20T06:36:45.646Z,18.19
2019-01-20T06:37:49.134Z,18.14
2019-01-20T06:38:52.648Z,18.11
2019-01-20T06:39:56.391Z,18.07
2019-01-20T06:40:59.957Z,18.02
2019-01-20T06:42:03.530Z,18.00
2019-01-20T06:43:07.091Z,17.95
2019-01-20T06:44:10.678Z,17.93
2019-01-20T06:45:15.198Z,17.89
2019-01-20T06:46:18.702Z,17.86
2019-01-20T06:47:22.267Z,17.81
2019-01-20T06:48:25.759Z,17.76
2019-01-20T06:49:29.354Z,17.74
2019-01-20T06:50:32.933Z,17.70
2019-01-20T06:51:36.447Z,17.68
2019-01-20T06:52:40.008Z,17.64
2019-01-20T06:53:43.509Z,17.62
2019-01-20T06:54:47.032Z,17.58
2019-01-20T06:55:50.606Z,17.55
2019-01-20T06:56:54.336Z,17.52
2019-01-20T06:57:58.006Z,17.49
2019-01-20T06:59:01.775Z,17.46
2019-01-20T07:00:08.596Z,17.45
2019-01-20T07:01:12.154Z,17.45
2019-01-20T07:02:15.635Z,17.46
2019-01-20T07:03:20.411Z,17.45
2019-01-20T07:04:24.079Z,17.46
2019-01-20T07:05:27.731Z,17.45
2019-01-20T07:06:31.325Z,17.45
2019-01-20T07:07:34.890Z,17.45
2019-01-20T07:08:38.802Z,17.43
2019-01-20T07:09:42.294Z,17.44
2019-01-20T07:10:45.774Z,17.43
2019-01-20T07:11:49.413Z,17.42
2019-01-20T07:12:53.086Z,17.42
2019-01-20T07:13:56.731Z,17.42
2019-01-20T07:15:01.926Z,17.42
2019-01-20T07:16:05.807Z,17.41
2019-01-20T07:17:09.457Z,17.40
2019-01-20T07:18:13.137Z,17.38
2019-01-20T07:19:16.816Z,17.38
2019-01-20T07:20:20.449Z,17.37
2019-01-20T07:21:24.205Z,17.36
2019-01-20T07:22:27.759Z,17.36
2019-01-20T07:23:31.330Z,17.36
2019-01-20T07:24:34.844Z,17.35
2019-01-20T07:25:38.347Z,17.35
2019-01-20T07:26:41.956Z,17.32
2019-01-20T07:27:45.432Z,17.34
2019-01-20T07:28:49.025Z,17.35
2019-01-20T07:29:52.514Z,17.33
2019-01-20T07:30:56.069Z,17.33
2019-01-20T07:31:59.607Z,17.33
2019-01-20T07:33:04.973Z,17.30
2019-01-20T07:34:08.480Z,17.29
2019-01-20T07:35:12.978Z,17.30
2019-01-20T07:36:16.453Z,17.29
2019-01-20T07:37:19.992Z,17.29
2019-01-20T07:38:23.500Z,17.28
2019-01-20T07:39:26.978Z,17.27
2019-01-20T07:40:30.842Z,17.25
2019-01-20T07:41:34.506Z,17.26
2019-01-20T07:42:38.214Z,17.25
2019-01-20T07:43:42.066Z,17.24
2019-01-20T07:44:45.853Z,17.21
2019-01-20T07:45:49.360Z,17.22
2019-01-20T07:46:52.871Z,17.20
2019-01-20T07:47:56.421Z,17.18
2019-01-20T07:48:59.967Z,17.15
2019-01-20T07:50:05.229Z,17.16
2019-01-20T07:51:08.773Z,17.15
2019-01-20T07:52:12.443Z,17.13
2019-01-20T07:53:15.992Z,17.12
2019-01-20T07:54:19.507Z,17.11
2019-01-20T07:55:23.255Z,17.09
2019-01-20T07:56:26.743Z,17.09
2019-01-20T07:57:30.283Z,17.08
2019-01-20T07:58:33.799Z,17.07
2019-01-20T07:59:37.410Z,17.07
2019-01-20T08:00:40.899Z,17.04
2019-01-20T08:01:44.476Z,17.04
2019-01-20T08:02:48.072Z,17.03
2019-01-20T08:03:51.584Z,17.03
2019-01-20T08:04:55.115Z,17.01
2019-01-20T08:05:58.702Z,17.00
2019-01-20T08:07:02.211Z,16.99
2019-01-20T08:08:06.022Z,16.96
2019-01-20T08:09:09.797Z,16.96
2019-01-20T08:10:21.304Z,16.95
2019-01-20T08:11:24.827Z,16.95
2019-01-20T08:12:28.402Z,16.94
2019-01-20T08:13:32.006Z,16.94
2019-01-20T08:14:35.611Z,16.94
2019-01-20T08:15:39.110Z,16.95
2019-01-20T08:16:42.750Z,16.98
2019-01-20T08:17:46.451Z,17.02
2019-01-20T08:18:50.017Z,17.04
2019-01-20T08:19:53.506Z,17.08
2019-01-20T08:20:57.077Z,17.09
2019-01-20T08:22:00.684Z,17.12
2019-01-20T08:23:04.648Z,17.13
2019-01-20T08:24:08.183Z,17.13
2019-01-20T08:25:13.785Z,17.13
2019-01-20T08:26:17.388Z,17.15
2019-01-20T08:27:21.079Z,17.16
2019-01-20T08:28:24.716Z,17.17
2019-01-20T08:29:28.466Z,17.18
2019-01-20T08:30:32.140Z,17.18
2019-01-20T08:31:35.765Z,17.19
2019-01-20T08:32:39.328Z,17.18
2019-01-20T08:33:42.823Z,17.18
2019-01-20T08:34:46.314Z,17.17
2019-01-20T08:35:50.050Z,17.15
2019-01-20T08:36:53.562Z,17.17
2019-01-20T08:37:57.131Z,17.20
2019-01-20T08:39:00.641Z,17.21
2019-01-20T08:40:06.938Z,17.22
2019-01-20T08:41:10.530Z,17.25
2019-01-20T08:42:14.110Z,17.25
2019-01-20T08:43:17.637Z,17.24
2019-01-20T08:44:23.088Z,17.23
2019-01-20T08:45:47.524Z,17.23
2019-01-20T08:46:52.763Z,17.24
2019-01-20T08:47:59.111Z,17.22
2019-01-20T08:49:02.738Z,17.22
2019-01-20T08:50:09.165Z,17.22
2019-01-20T08:51:13.210Z,17.23
2019-01-20T08:52:16.787Z,17.22
2019-01-20T08:53:20.372Z,17.23
2019-01-20T08:54:23.853Z,17.24
2019-01-20T08:55:27.398Z,17.26
2019-01-20T08:56:30.934Z,17.29
2019-01-20T08:57:34.671Z,17.27
2019-01-20T08:58:38.202Z,17.29
2019-01-20T08:59:41.765Z,17.29
2019-01-20T09:00:45.236Z,17.31
2019-01-20T09:01:48.737Z,17.34
2019-01-20T09:02:52.243Z,17.35
2019-01-20T09:03:55.877Z,17.35
2019-01-20T09:04:59.394Z,17.38
2019-01-20T09:06:02.873Z,17.38
2019-01-20T09:07:06.518Z,17.38
2019-01-20T09:08:10.225Z,17.39
2019-01-20T09:09:13.699Z,17.40
2019-01-20T09:10:23.019Z,17.41
2019-01-20T09:11:26.574Z,17.40
2019-01-20T09:12:30.849Z,17.38
2019-01-20T09:13:39.627Z,17.36
2019-01-20T09:14:39.865Z,17.34
2019-01-20T09:15:43.503Z,17.31
2019-01-20T09:16:47.015Z,17.29
2019-01-20T09:17:50.535Z,17.28
2019-01-20T09:18:54.075Z,17.24
2019-01-20T09:19:57.555Z,17.23
2019-01-20T09:21:01.118Z,17.22
2019-01-20T09:22:04.958Z,17.21
2019-01-20T09:23:08.538Z,17.22
2019-01-20T09:24:12.038Z,17.23
2019-01-20T09:25:15.777Z,17.22
2019-01-20T09:26:19.265Z,17.22
2019-01-20T09:27:22.762Z,17.20
2019-01-20T09:28:26.295Z,17.19
2019-01-20T09:29:29.777Z,17.17
2019-01-20T09:30:33.431Z,17.16
2019-01-20T09:31:37.003Z,17.12
2019-01-20T09:32:40.511Z,17.08
2019-01-20T09:33:44.031Z,17.00
2019-01-20T09:34:47.515Z,16.94
2019-01-20T09:35:51.090Z,16.89
2019-01-20T09:36:54.671Z,16.83
2019-01-20T09:37:58.260Z,16.75
2019-01-20T09:39:01.845Z,16.69
2019-01-20T09:40:07.892Z,16.64
2019-01-20T09:41:11.397Z,16.62
2019-01-20T09:42:14.912Z,16.60
2019-01-20T09:43:18.423Z,16.57
2019-01-20T09:44:22.073Z,16.54
2019-01-20T09:45:31.359Z,16.52
2019-01-20T09:46:35.065Z,16.48
2019-01-20T09:47:38.717Z,16.45
2019-01-20T09:48:42.427Z,16.41
2019-01-20T09:49:45.918Z,16.38
2019-01-20T09:50:51.493Z,16.33
2019-01-20T09:51:54.817Z,16.30
2019-01-20T09:52:58.436Z,16.28
2019-01-20T09:54:01.955Z,16.25
2019-01-20T09:55:08.516Z,16.21
2019-01-20T09:56:12.076Z,16.17
2019-01-20T09:57:15.714Z,16.16
2019-01-20T09:58:19.407Z,16.15
2019-01-20T09:59:23.076Z,16.14
2019-01-20T10:00:29.338Z,16.15
2019-01-20T10:01:32.901Z,16.12
2019-01-20T10:02:36.404Z,16.11
2019-01-20T10:03:39.903Z,16.10
2019-01-20T10:04:43.499Z,16.09
2019-01-20T10:05:47.009Z,16.09
2019-01-20T10:06:50.574Z,16.09
2019-01-20T10:07:54.283Z,16.10
2019-01-20T10:08:57.835Z,16.10
2019-01-20T10:10:01.353Z,16.10
2019-01-20T10:11:05.182Z,16.10
2019-01-20T10:12:08.800Z,16.12
2019-01-20T10:13:12.308Z,16.10
2019-01-20T10:14:15.893Z,16.09
2019-01-20T10:15:19.539Z,16.09
2019-01-20T10:16:23.096Z,16.12
2019-01-20T10:17:26.726Z,16.12
2019-01-20T10:18:30.378Z,16.17
2019-01-20T10:19:33.873Z,16.27
2019-01-20T10:20:37.467Z,16.38
2019-01-20T10:21:41.059Z,16.47
2019-01-20T10:22:44.570Z,16.63
2019-01-20T10:23:48.063Z,16.83
2019-01-20T10:24:51.603Z,16.96
2019-01-20T10:25:55.210Z,17.13
2019-01-20T10:26:58.722Z,17.31
2019-01-20T10:28:02.342Z,17.47
2019-01-20T10:29:05.914Z,17.63
2019-01-20T10:30:21.131Z,17.74
2019-01-20T10:31:24.655Z,17.83
2019-01-20T10:32:28.228Z,18.04
2019-01-20T10:33:31.735Z,18.16
2019-01-20T10:34:35.442Z,18.22
2019-01-20T10:35:43.383Z,18.30
2019-01-20T10:36:46.991Z,18.38
2019-01-20T10:37:50.807Z,18.43
2019-01-20T10:38:54.301Z,18.57
2019-01-20T10:39:57.791Z,18.68
2019-01-20T10:41:01.490Z,18.70
2019-01-20T10:42:05.545Z,18.83
2019-01-20T10:43:09.284Z,18.84
2019-01-20T10:44:12.816Z,18.82
2019-01-20T10:45:16.372Z,18.83
2019-01-20T10:46:19.868Z,18.88
2019-01-20T10:47:23.414Z,18.86
2019-01-20T10:48:26.970Z,18.89
2019-01-20T10:49:30.531Z,18.89
2019-01-20T10:50:34.094Z,18.91
2019-01-20T10:51:37.653Z,18.96
2019-01-20T10:52:41.244Z,18.99
2019-01-20T10:53:44.813Z,18.99
2019-01-20T10:54:48.312Z,18.98
2019-01-20T10:55:51.869Z,19.01
2019-01-20T10:56:55.436Z,19.02
2019-01-20T10:57:59.098Z,19.03
2019-01-20T10:59:02.745Z,19.04
2019-01-20T11:00:09.360Z,19.04
2019-01-20T11:01:12.935Z,19.05
2019-01-20T11:02:16.476Z,19.12
2019-01-20T11:03:20.308Z,19.12
2019-01-20T11:04:24.428Z,19.06
2019-01-20T11:05:30.518Z,19.08
2019-01-20T11:06:33.537Z,19.05
2019-01-20T11:07:37.698Z,19.06
2019-01-20T11:08:43.764Z,19.03
2019-01-20T11:09:46.993Z,19.02
2019-01-20T11:10:52.210Z,18.98
2019-01-20T11:11:55.825Z,18.97
2019-01-20T11:12:59.503Z,18.98
2019-01-20T11:14:09.399Z,18.96
2019-01-20T11:15:13.792Z,18.92
2019-01-20T11:16:17.380Z,18.87
2019-01-20T11:17:20.961Z,18.87
2019-01-20T11:18:24.779Z,18.86
2019-01-20T11:19:28.363Z,18.90
2019-01-20T11:20:31.985Z,18.90
2019-01-20T11:21:35.544Z,18.95
2019-01-20T11:22:39.408Z,19.01
2019-01-20T11:23:43.086Z,19.01
2019-01-20T11:24:46.611Z,19.03
2019-01-20T11:25:50.099Z,19.04
2019-01-20T11:26:53.682Z,19.09
2019-01-20T11:27:57.345Z,19.05
2019-01-20T11:29:00.983Z,19.03
2019-01-20T11:30:07.380Z,19.01
2019-01-20T11:31:10.935Z,19.01
2019-01-20T11:32:14.561Z,18.97
2019-01-20T11:33:19.543Z,18.95
2019-01-20T11:34:23.021Z,18.94
2019-01-20T11:35:26.550Z,18.93
2019-01-20T11:36:30.329Z,18.90
2019-01-20T11:37:38.626Z,18.89
2019-01-20T11:38:42.234Z,18.90
2019-01-20T11:39:45.796Z,18.85
2019-01-20T11:40:50.629Z,18.91
2019-01-20T11:41:54.101Z,18.92
2019-01-20T11:42:57.840Z,18.93
2019-01-20T11:44:01.618Z,18.95
2019-01-20T11:45:11.221Z,19.00
2019-01-20T11:46:14.819Z,19.00
2019-01-20T11:47:18.335Z,19.03
2019-01-20T11:48:21.972Z,19.00
2019-01-20T11:49:25.566Z,19.03
2019-01-20T11:50:30.010Z,19.00
2019-01-20T11:51:33.711Z,19.00
2019-01-20T11:52:37.343Z,18.97
2019-01-20T11:53:40.961Z,18.96
2019-01-20T11:54:44.462Z,18.91
2019-01-20T11:55:48.045Z,18.89
2019-01-20T11:56:51.557Z,18.89
2019-01-20T11:57:55.306Z,18.86
2019-01-20T11:58:58.794Z,18.83
2019-01-20T12:00:02.349Z,18.84
2019-01-20T12:01:05.932Z,18.83
2019-01-20T12:02:09.590Z,18.84
2019-01-20T12:03:13.130Z,18.88
2019-01-20T12:04:16.655Z,18.91
2019-01-20T12:05:20.951Z,18.96
2019-01-20T12:06:24.611Z,18.98
2019-01-20T12:07:28.139Z,18.95
2019-01-20T12:08:31.619Z,18.92
2019-01-20T12:09:35.181Z,18.91
2019-01-20T12:10:38.815Z,18.93
2019-01-20T12:11:42.318Z,18.92
2019-01-20T12:12:47.657Z,18.91
2019-01-20T12:13:51.233Z,18.87
2019-01-20T12:14:54.805Z,18.86
2019-01-20T12:15:58.370Z,18.83
2019-01-20T12:17:01.951Z,18.80
2019-01-20T12:18:06.010Z,18.79
2019-01-20T12:19:09.495Z,18.79
2019-01-20T12:20:16.995Z,18.77
2019-01-20T12:21:20.494Z,18.75
2019-01-20T12:22:24.009Z,18.75
2019-01-20T12:23:27.539Z,18.74
2019-01-20T12:24:31.063Z,18.76
2019-01-20T12:25:34.647Z,18.77
2019-01-20T12:26:38.304Z,18.76
2019-01-20T12:27:41.878Z,18.76
2019-01-20T12:28:45.559Z,18.73
2019-01-20T12:29:51.940Z,18.73
2019-01-20T12:30:55.029Z,18.73
2019-01-20T12:31:58.615Z,18.71
2019-01-20T12:33:03.867Z,18.71
2019-01-20T12:34:07.480Z,18.68
2019-01-20T12:35:11.119Z,18.68
2019-01-20T12:36:14.723Z,18.67
2019-01-20T12:37:18.290Z,18.63
2019-01-20T12:38:21.890Z,18.62
2019-01-20T12:39:25.397Z,18.59
2019-01-20T12:40:34.294Z,18.58
2019-01-20T12:41:37.884Z,18.58
2019-01-20T12:42:41.510Z,18.57
2019-01-20T12:43:45.006Z,18.55
2019-01-20T12:44:48.540Z,18.58
2019-01-20T12:45:52.078Z,18.56
2019-01-20T12:46:55.653Z,18.56
2019-01-20T12:47:59.292Z,18.55
2019-01-20T12:49:02.957Z,18.57
2019-01-20T12:50:09.776Z,18.55
2019-01-20T12:51:13.640Z,18.53
2019-01-20T12:52:17.192Z,18.52
2019-01-20T12:53:20.773Z,18.50
2019-01-20T12:54:24.410Z,18.47
2019-01-20T12:55:28.132Z,18.48
2019-01-20T12:56:31.677Z,18.43
2019-01-20T12:57:35.435Z,18.40
2019-01-20T12:58:39.016Z,18.38
2019-01-20T12:59:42.502Z,18.38
2019-01-20T13:00:46.082Z,18.36
2019-01-20T13:01:49.644Z,18.32
2019-01-20T13:02:53.217Z,18.33
2019-01-20T13:03:56.691Z,18.31
2019-01-20T13:05:00.291Z,18.28
2019-01-20T13:06:04.268Z,18.26
2019-01-20T13:07:07.857Z,18.23
2019-01-20T13:08:11.419Z,18.20
2019-01-20T13:09:14.912Z,18.18
2019-01-20T13:10:19.554Z,18.16
2019-01-20T13:11:23.300Z,18.17
2019-01-20T13:12:26.941Z,18.15
2019-01-20T13:13:30.469Z,18.20
2019-01-20T13:14:38.969Z,18.20
2019-01-20T13:15:39.453Z,18.18
2019-01-20T13:16:43.133Z,18.17
2019-01-20T13:17:46.817Z,18.15
2019-01-20T13:18:50.303Z,18.14
2019-01-20T13:19:53.798Z,18.12
2019-01-20T13:20:57.496Z,18.11
2019-01-20T13:22:01.333Z,18.11
2019-01-20T13:23:05.243Z,18.13
2019-01-20T13:24:08.768Z,18.09
2019-01-20T13:25:15.307Z,18.08
2019-01-20T13:26:18.844Z,18.08
2019-01-20T13:27:22.452Z,18.04
2019-01-20T13:28:25.956Z,18.03
2019-01-20T13:29:29.673Z,18.02
2019-01-20T13:30:33.236Z,17.99
2019-01-20T13:31:36.816Z,17.97
2019-01-20T13:32:40.401Z,17.94
2019-01-20T13:33:43.985Z,17.91
2019-01-20T13:34:47.492Z,17.90
2019-01-20T13:35:51.073Z,17.87
2019-01-20T13:36:54.846Z,17.87
2019-01-20T13:38:03.889Z,17.86
2019-01-20T13:39:10.135Z,17.87
2019-01-20T13:40:16.689Z,17.88
2019-01-20T13:41:20.253Z,17.90
2019-01-20T13:42:23.870Z,17.90
2019-01-20T13:43:27.472Z,17.88
2019-01-20T13:44:31.056Z,17.86